createdAt,value
2022-12-26T00:00:47.188Z,1.40
2022-12-26T00:03:15.210Z,1.40
2022-12-26T00:05:42.255Z,1.40
2022-12-26T00:08:09.105Z,1.40
2022-12-26T00:10:35.941Z,1.40
2022-12-26T00:13:37.115Z,1.40
2022-12-26T00:15:49.708Z,1.40
2022-12-26T00:18:17.723Z,1.40
2022-12-26T00:20:44.572Z,1.30
2022-12-26T00:23:11.365Z,1.40
2022-12-26T00:25:38.183Z,1.40
2022-12-26T00:28:05.268Z,1.40
2022-12-26T00:30:32.154Z,1.40
2022-12-26T00:32:58.970Z,1.40
2022-12-26T00:35:25.814Z,1.40
2022-12-26T00:37:52.618Z,1.40
2022-12-26T00:40:19.457Z,1.40
2022-12-26T00:42:46.345Z,1.50
2022-12-26T00:45:13.193Z,1.50
2022-12-26T00:47:40.008Z,1.50
2022-12-26T00:50:13.193Z,1.50
2022-12-26T00:52:42.660Z,1.50
2022-12-26T00:55:10.529Z,1.40
2022-12-26T00:57:37.510Z,1.40
2022-12-26T01:00:05.653Z,1.50
2022-12-26T01:02:38.402Z,1.50
2022-12-26T01:05:09.151Z,1.50
2022-12-26T01:08:20.404Z,1.50
2022-12-26T01:10:24.095Z,1.50
2022-12-26T01:12:51.326Z,1.50
2022-12-26T01:15:18.349Z,1.50
2022-12-26T01:17:46.323Z,1.50
2022-12-26T01:20:13.210Z,1.50
2022-12-26T01:22:40.168Z,1.60
2022-12-26T01:25:07.659Z,1.60
2022-12-26T01:27:34.626Z,1.50
2022-12-26T01:30:01.559Z,1.60
2022-12-26T01:32:28.389Z,1.60
2022-12-26T01:34:56.245Z,1.60
2022-12-26T01:37:23.615Z,1.60
2022-12-26T01:39:52.070Z,1.60
2022-12-26T01:42:22.809Z,1.60
2022-12-26T01:44:55.492Z,1.60
2022-12-26T01:47:25.968Z,1.60
2022-12-26T01:49:54.198Z,1.60
2022-12-26T01:52:40.211Z,1.60
2022-12-26T01:55:11.247Z,1.70
2022-12-26T01:57:44.247Z,1.70
2022-12-26T02:00:11.795Z,1.70
2022-12-26T02:03:01.028Z,1.70
2022-12-26T02:05:35.784Z,1.70
2022-12-26T02:08:24.960Z,1.70
2022-12-26T02:11:00.860Z,1.80
2022-12-26T02:13:29.767Z,1.80
2022-12-26T02:15:57.152Z,1.80
2022-12-26T02:18:24.036Z,1.80
2022-12-26T02:20:53.611Z,1.80
2022-12-26T02:23:39.208Z,1.80
2022-12-26T02:26:31.913Z,1.80
2022-12-26T02:29:24.818Z,1.80
2022-12-26T02:32:29.235Z,1.90
2022-12-26T02:34:56.013Z,1.90
2022-12-26T02:37:31.989Z,1.90
2022-12-26T02:40:25.054Z,1.90
2022-12-26T02:42:54.825Z,1.90
2022-12-26T02:45:54.246Z,2.00
2022-12-26T02:48:39.121Z,2.00
2022-12-26T02:52:10.592Z,2.10
2022-12-26T02:55:18.626Z,2.10
2022-12-26T02:58:17.018Z,2.10
2022-12-26T03:01:06.985Z,2.10
2022-12-26T03:03:54.535Z,2.10
2022-12-26T03:06:41.908Z,2.10
2022-12-26T03:09:33.265Z,2.10
2022-12-26T03:12:51.301Z,2.10
2022-12-26T03:15:20.749Z,2.10
2022-12-26T03:17:51.862Z,2.20
2022-12-26T03:20:23.881Z,2.10
2022-12-26T03:22:55.301Z,2.10
2022-12-26T03:25:57.690Z,2.20
2022-12-26T03:28:25.777Z,2.20
2022-12-26T03:30:55.772Z,2.20
2022-12-26T03:33:41.228Z,2.30
2022-12-26T03:36:13.283Z,2.30
2022-12-26T03:39:07.550Z,2.30
2022-12-26T03:42:02.220Z,2.30
2022-12-26T03:45:27.050Z,2.30
2022-12-26T03:48:39.522Z,2.40
2022-12-26T03:51:34.313Z,2.40
2022-12-26T03:54:38.602Z,2.40
2022-12-26T03:57:30.861Z,2.40
2022-12-26T04:00:43.911Z,2.40
2022-12-26T04:03:32.736Z,2.50
2022-12-26T04:06:22.135Z,2.50
2022-12-26T04:09:30.508Z,2.50
2022-12-26T04:12:18.965Z,2.50
2022-12-26T04:15:19.326Z,2.50
2022-12-26T04:18:18.313Z,2.50
2022-12-26T04:21:05.655Z,2.60
2022-12-26T04:24:13.050Z,2.60
2022-12-26T04:27:03.874Z,2.60
2022-12-26T04:29:49.917Z,2.60
2022-12-26T04:32:46.344Z,2.70
2022-12-26T04:35:38.106Z,2.70
2022-12-26T04:38:25.074Z,2.70
2022-12-26T04:41:16.848Z,2.70
2022-12-26T04:44:03.068Z,2.80
2022-12-26T04:46:32.189Z,2.80
2022-12-26T04:49:21.937Z,2.80
2022-12-26T04:51:49.218Z,2.80
2022-12-26T04:54:16.113Z,2.80
2022-12-26T04:56:42.979Z,2.90
2022-12-26T04:59:09.951Z,2.90
2022-12-26T05:01:55.564Z,2.90
2022-12-26T05:04:41.093Z,2.90
2022-12-26T05:07:46.159Z,2.90
2022-12-26T05:10:19.719Z,2.90
2022-12-26T05:12:46.712Z,3.00
2022-12-26T05:15:14.041Z,3.00
2022-12-26T05:17:59.594Z,3.00
2022-12-26T05:20:45.437Z,3.00
2022-12-26T05:23:42.376Z,3.00
2022-12-26T05:26:45.847Z,3.00
2022-12-26T05:29:12.805Z,3.00
2022-12-26T05:31:39.710Z,3.00
2022-12-26T05:34:12.203Z,3.00
2022-12-26T05:36:44.988Z,3.10
2022-12-26T05:39:11.918Z,3.10
2022-12-26T05:41:40.429Z,3.10
2022-12-26T05:44:08.585Z,3.10
2022-12-26T05:46:36.057Z,3.10
2022-12-26T05:49:03.800Z,3.10
2022-12-26T05:51:30.759Z,3.10
2022-12-26T05:53:57.977Z,3.10
2022-12-26T05:56:24.888Z,3.10
2022-12-26T05:58:56.137Z,3.10
2022-12-26T06:01:23.985Z,3.10
2022-12-26T06:03:53.720Z,3.10
2022-12-26T06:06:21.870Z,3.10
2022-12-26T06:08:50.691Z,3.10
2022-12-26T06:11:18.429Z,3.20
2022-12-26T06:13:46.038Z,3.20
2022-12-26T06:16:15.478Z,3.10
2022-12-26T06:18:42.864Z,3.10
2022-12-26T06:21:12.192Z,3.20
2022-12-26T06:23:39.731Z,3.20
2022-12-26T06:26:09.101Z,3.20
2022-12-26T06:28:36.820Z,3.20
2022-12-26T06:31:10.317Z,3.20
2022-12-26T06:33:37.643Z,3.20
2022-12-26T06:36:06.727Z,3.20
2022-12-26T06:38:33.733Z,3.20
2022-12-26T06:41:00.720Z,3.20
2022-12-26T06:43:27.687Z,3.20
2022-12-26T06:45:58.789Z,3.20
2022-12-26T06:48:26.192Z,3.20
2022-12-26T06:50:54.497Z,3.20
2022-12-26T06:53:23.055Z,3.20
2022-12-26T06:55:50.866Z,3.20
2022-12-26T06:58:17.961Z,3.20
2022-12-26T07:00:44.912Z,3.20
2022-12-26T07:03:12.041Z,3.20
2022-12-26T07:05:39.255Z,3.20
2022-12-26T07:08:06.984Z,3.20
2022-12-26T07:10:37.227Z,3.20
2022-12-26T07:13:04.231Z,3.20
2022-12-26T07:15:31.746Z,3.20
2022-12-26T07:17:58.627Z,3.20
2022-12-26T07:20:25.551Z,3.30
2022-12-26T07:22:52.345Z,3.30
2022-12-26T07:25:19.173Z,3.30
2022-12-26T07:27:45.993Z,3.30
2022-12-26T07:30:13.025Z,3.20
2022-12-26T07:32:39.867Z,3.20
2022-12-26T07:35:07.004Z,3.30
2022-12-26T07:37:33.881Z,3.20
2022-12-26T07:40:00.678Z,3.20
2022-12-26T07:42:27.579Z,3.30
2022-12-26T07:44:54.412Z,3.20
2022-12-26T07:47:21.253Z,3.30
2022-12-26T07:49:48.176Z,3.20
2022-12-26T07:52:15.138Z,3.20
2022-12-26T07:54:41.949Z,3.20
2022-12-26T07:57:46.141Z,3.20
2022-12-26T07:59:57.062Z,3.20
2022-12-26T08:02:24.374Z,3.20
2022-12-26T08:04:51.385Z,3.20
2022-12-26T08:07:18.534Z,3.30
2022-12-26T08:09:45.434Z,3.20
2022-12-26T08:12:13.145Z,3.30
2022-12-26T08:14:40.981Z,3.20
2022-12-26T08:17:08.899Z,3.20
2022-12-26T08:19:35.827Z,3.20
2022-12-26T08:22:02.693Z,3.20
2022-12-26T08:24:29.751Z,3.20
2022-12-26T08:26:56.659Z,3.20
2022-12-26T08:29:23.513Z,3.20
2022-12-26T08:31:50.455Z,3.20
2022-12-26T08:34:17.423Z,3.20
2022-12-26T08:36:44.407Z,3.20
2022-12-26T08:39:11.356Z,3.20
2022-12-26T08:41:38.280Z,3.20
2022-12-26T08:46:52.090Z,3.20
2022-12-26T08:49:19.121Z,3.20
2022-12-26T08:51:45.905Z,3.20
2022-12-26T08:54:12.725Z,3.20
2022-12-26T08:56:39.730Z,3.20
2022-12-26T08:59:06.625Z,3.20
2022-12-26T09:01:33.660Z,3.20
2022-12-26T09:04:03.201Z,3.20
2022-12-26T09:06:32.859Z,3.20
2022-12-26T09:09:00.334Z,3.20
2022-12-26T09:11:28.636Z,3.20
2022-12-26T09:13:57.404Z,3.20
2022-12-26T09:16:30.431Z,3.10
2022-12-26T09:19:01.401Z,3.10
2022-12-26T09:21:29.568Z,3.10
2022-12-26T09:24:01.362Z,3.10
2022-12-26T09:26:29.351Z,3.10
2022-12-26T09:28:56.743Z,3.10
2022-12-26T09:31:26.051Z,3.10
2022-12-26T09:33:55.864Z,3.10
2022-12-26T09:36:24.776Z,3.10
2022-12-26T09:38:52.501Z,3.10
2022-12-26T09:41:24.875Z,3.10
2022-12-26T09:44:04.735Z,3.10
2022-12-26T09:46:39.488Z,3.10
2022-12-26T09:49:32.685Z,3.10
2022-12-26T09:52:02.252Z,3.10
2022-12-26T09:54:39.234Z,3.10
2022-12-26T09:57:16.844Z,3.10
2022-12-26T09:59:56.737Z,3.10
2022-12-26T10:02:25.353Z,3.10
2022-12-26T10:04:54.003Z,3.10
2022-12-26T10:07:42.478Z,3.10
2022-12-26T10:10:14.059Z,3.10
2022-12-26T10:13:02.367Z,3.10
2022-12-26T10:15:53.853Z,3.10
2022-12-26T10:18:39.648Z,3.10
2022-12-26T10:21:42.354Z,3.10
2022-12-26T10:24:16.563Z,3.10
2022-12-26T10:26:59.799Z,3.10
2022-12-26T10:29:38.934Z,3.10
2022-12-26T10:32:25.946Z,3.10
2022-12-26T10:34:54.945Z,3.10
2022-12-26T10:37:27.892Z,3.10
2022-12-26T10:40:05.951Z,3.10
2022-12-26T10:42:41.756Z,3.10
2022-12-26T10:45:21.980Z,3.10
2022-12-26T10:47:51.235Z,3.00
2022-12-26T10:50:28.147Z,3.00
2022-12-26T10:52:57.006Z,3.00
2022-12-26T10:55:34.478Z,3.10
2022-12-26T10:58:14.672Z,3.10
2022-12-26T11:00:41.628Z,3.10
2022-12-26T11:03:14.395Z,3.10
2022-12-26T11:06:09.638Z,3.00
2022-12-26T11:08:49.225Z,3.10
2022-12-26T11:11:46.046Z,3.00
2022-12-26T11:14:36.592Z,3.10
2022-12-26T11:17:23.984Z,3.00
2022-12-26T11:20:14.561Z,3.00
2022-12-26T11:22:41.891Z,3.00
2022-12-26T11:25:20.938Z,3.00
2022-12-26T11:27:56.023Z,3.00
2022-12-26T11:30:27.766Z,3.00
2022-12-26T11:33:14.125Z,3.00
2022-12-26T11:36:09.795Z,3.10
2022-12-26T11:38:56.031Z,3.00
2022-12-26T11:41:32.229Z,3.00
2022-12-26T11:44:11.409Z,3.00
2022-12-26T11:47:06.110Z,3.00
2022-12-26T11:49:39.641Z,3.00
2022-12-26T11:52:37.597Z,3.00
2022-12-26T11:55:33.664Z,3.00
2022-12-26T11:58:10.609Z,3.00
2022-12-26T12:00:40.199Z,3.00
2022-12-26T12:03:34.416Z,3.00
2022-12-26T12:06:22.586Z,3.00
2022-12-26T12:09:05.730Z,3.00
2022-12-26T12:11:50.905Z,3.00
2022-12-26T12:14:30.318Z,3.00
2022-12-26T12:17:40.093Z,3.00
2022-12-26T12:20:30.048Z,3.00
2022-12-26T12:23:34.707Z,3.00
2022-12-26T12:26:10.820Z,3.00
2022-12-26T12:29:02.137Z,3.00
2022-12-26T12:31:58.409Z,3.00
2022-12-26T12:34:31.802Z,3.00
2022-12-26T12:37:01.623Z,3.00
2022-12-26T12:39:40.529Z,3.00
2022-12-26T12:42:55.597Z,3.00
2022-12-26T12:45:44.650Z,3.00
2022-12-26T12:48:49.233Z,3.00
2022-12-26T12:51:27.164Z,3.00
2022-12-26T12:54:20.075Z,3.00
2022-12-26T12:56:52.702Z,3.00
2022-12-26T12:59:50.432Z,3.00
2022-12-26T13:02:29.033Z,3.00
2022-12-26T13:05:04.843Z,3.00
2022-12-26T13:07:41.809Z,3.00
2022-12-26T13:10:58.847Z,3.00
2022-12-26T13:13:42.139Z,3.00
2022-12-26T13:16:22.562Z,3.00
2022-12-26T13:18:53.639Z,3.00
2022-12-26T13:21:21.906Z,3.00
2022-12-26T13:24:26.675Z,3.00
2022-12-26T13:26:58.885Z,2.90
2022-12-26T13:29:31.812Z,2.90
2022-12-26T13:32:00.532Z,2.90
2022-12-26T13:34:28.078Z,2.90
2022-12-26T13:36:56.531Z,2.80
2022-12-26T13:39:23.327Z,2.80
2022-12-26T13:42:26.448Z,2.80
2022-12-26T13:44:53.957Z,2.80
2022-12-26T13:47:36.396Z,2.80
2022-12-26T13:50:53.415Z,2.70
2022-12-26T13:53:25.053Z,2.70
2022-12-26T13:55:52.044Z,2.70
2022-12-26T13:58:58.650Z,2.70
2022-12-26T14:02:06.980Z,2.70
2022-12-26T14:04:39.352Z,2.60
2022-12-26T14:07:35.096Z,2.60
2022-12-26T14:10:07.039Z,2.50
2022-12-26T14:12:52.602Z,2.50
2022-12-26T14:15:31.793Z,2.60
2022-12-26T14:18:18.832Z,2.50
2022-12-26T14:21:16.102Z,2.50
2022-12-26T14:24:06.187Z,2.50
2022-12-26T14:26:51.892Z,2.50
2022-12-26T14:29:24.745Z,2.40
2022-12-26T14:32:00.196Z,2.40
2022-12-26T14:34:48.337Z,2.40
2022-12-26T14:37:40.167Z,2.30
2022-12-26T14:40:25.656Z,2.30
2022-12-26T14:43:24.596Z,2.20
2022-12-26T14:45:53.061Z,2.10
2022-12-26T14:48:19.888Z,2.10
2022-12-26T14:51:18.845Z,2.00
2022-12-26T14:54:06.589Z,2.00
2022-12-26T14:56:37.199Z,2.00
2022-12-26T14:59:28.052Z,1.90
2022-12-26T15:02:29.762Z,1.90
2022-12-26T15:05:26.278Z,1.90
2022-12-26T15:08:07.925Z,2.00
2022-12-26T15:11:04.787Z,2.00
2022-12-26T15:13:43.255Z,1.90
2022-12-26T15:16:30.264Z,2.00
2022-12-26T15:19:20.272Z,2.00
2022-12-26T15:22:08.715Z,2.00
2022-12-26T15:25:17.571Z,2.00
2022-12-26T15:27:57.627Z,2.00
2022-12-26T15:30:27.503Z,2.00
2022-12-26T15:33:07.876Z,2.10
2022-12-26T15:35:38.443Z,2.10
2022-12-26T15:38:15.485Z,2.10
2022-12-26T15:40:50.679Z,2.10
2022-12-26T15:43:46.095Z,2.10
2022-12-26T15:46:32.949Z,2.10
2022-12-26T15:49:31.829Z,2.10
2022-12-26T15:52:01.809Z,2.10
2022-12-26T15:55:05.767Z,2.10
2022-12-26T15:57:50.515Z,2.10
2022-12-26T16:00:28.587Z,2.10
2022-12-26T16:03:12.675Z,2.10
2022-12-26T16:06:05.777Z,2.10
2022-12-26T16:08:55.787Z,2.10
2022-12-26T16:11:31.159Z,2.10
2022-12-26T16:14:01.198Z,2.00
2022-12-26T16:16:33.004Z,2.00
2022-12-26T16:19:16.297Z,2.00
2022-12-26T16:22:11.019Z,2.00
2022-12-26T16:24:40.809Z,2.00
2022-12-26T16:27:09.274Z,2.00
2022-12-26T16:29:44.749Z,1.90
2022-12-26T16:32:20.708Z,1.90
2022-12-26T16:34:48.341Z,1.90
2022-12-26T16:37:20.133Z,1.90
2022-12-26T16:40:15.865Z,1.90
2022-12-26T16:43:03.810Z,1.90
2022-12-26T16:45:34.669Z,1.80
2022-12-26T16:48:04.911Z,1.80
2022-12-26T16:50:33.064Z,1.70
2022-12-26T16:53:10.205Z,1.70
2022-12-26T16:55:42.050Z,1.70
2022-12-26T16:58:16.479Z,1.60
2022-12-26T17:01:07.160Z,1.60
2022-12-26T17:03:58.235Z,1.50
2022-12-26T17:06:34.257Z,1.50
2022-12-26T17:09:16.898Z,1.50
2022-12-26T17:11:57.528Z,1.40
2022-12-26T17:14:37.004Z,1.40
2022-12-26T17:17:25.970Z,1.40
2022-12-26T17:19:55.811Z,1.40
2022-12-26T17:22:34.448Z,1.40
2022-12-26T17:25:29.435Z,1.40
2022-12-26T17:28:08.735Z,1.30
2022-12-26T17:30:37.901Z,1.30
2022-12-26T17:33:15.147Z,1.30
2022-12-26T17:36:44.729Z,1.30
2022-12-26T17:38:36.324Z,1.30
2022-12-26T17:41:05.344Z,1.30
2022-12-26T17:43:35.063Z,1.30
2022-12-26T17:46:03.449Z,1.30
2022-12-26T17:48:30.994Z,1.30
2022-12-26T17:51:04.718Z,1.30
2022-12-26T17:53:33.271Z,1.30
2022-12-26T17:56:06.224Z,1.30
2022-12-26T17:58:34.256Z,1.30
2022-12-26T18:01:01.478Z,1.30
2022-12-26T18:03:28.955Z,1.30
2022-12-26T18:05:56.583Z,1.30
2022-12-26T18:08:29.982Z,1.20
2022-12-26T18:10:57.555Z,1.20
2022-12-26T18:13:24.702Z,1.30
2022-12-26T18:15:53.358Z,1.20
2022-12-26T18:18:29.204Z,1.20
2022-12-26T18:20:56.236Z,1.20
2022-12-26T18:23:23.116Z,1.20
2022-12-26T18:25:54.518Z,1.20
2022-12-26T18:28:21.829Z,1.20
2022-12-26T18:30:48.687Z,1.20
2022-12-26T18:33:15.597Z,1.20
2022-12-26T18:35:44.474Z,1.20
2022-12-26T18:38:18.674Z,1.20
2022-12-26T18:40:48.156Z,1.20
2022-12-26T18:43:15.321Z,1.20
2022-12-26T18:45:42.805Z,1.20
2022-12-26T18:48:13.665Z,1.20
2022-12-26T18:50:40.734Z,1.20
2022-12-26T18:53:07.674Z,1.20
2022-12-26T18:55:34.532Z,1.20
2022-12-26T18:58:01.373Z,1.20
2022-12-26T19:00:28.393Z,1.10
2022-12-26T19:02:55.719Z,1.10
2022-12-26T19:05:24.071Z,1.10
2022-12-26T19:07:50.879Z,1.10
2022-12-26T19:10:19.315Z,1.10
2022-12-26T19:12:46.606Z,1.00
2022-12-26T19:15:14.190Z,1.00
2022-12-26T19:17:43.637Z,1.00
2022-12-26T19:20:26.220Z,1.00
2022-12-26T19:22:54.371Z,1.00
2022-12-26T19:25:22.802Z,1.00
2022-12-26T19:27:50.718Z,1.00
2022-12-26T19:30:18.732Z,1.00
2022-12-26T19:32:45.878Z,1.00
2022-12-26T19:35:13.596Z,1.00
2022-12-26T19:37:41.055Z,1.10
2022-12-26T19:40:10.539Z,1.00
2022-12-26T19:42:38.536Z,1.00
2022-12-26T19:45:07.372Z,1.10
2022-12-26T19:47:34.787Z,1.10
2022-12-26T19:50:02.121Z,1.10
2022-12-26T19:52:29.609Z,1.10
2022-12-26T19:54:56.527Z,1.10
2022-12-26T19:57:23.531Z,1.10
2022-12-26T19:59:50.960Z,1.10
2022-12-26T20:02:18.079Z,1.10
2022-12-26T20:04:45.478Z,1.10
2022-12-26T20:07:12.334Z,1.10
2022-12-26T20:09:39.334Z,1.10
2022-12-26T20:12:06.366Z,1.10
2022-12-26T20:14:33.449Z,1.10
2022-12-26T20:17:06.595Z,1.10
2022-12-26T20:19:35.461Z,1.10
2022-12-26T20:22:02.487Z,1.10
2022-12-26T20:24:29.325Z,1.10
2022-12-26T20:26:56.269Z,1.10
2022-12-26T20:29:23.453Z,1.20
2022-12-26T20:31:50.495Z,1.20
2022-12-26T20:34:17.661Z,1.20
2022-12-26T20:36:44.522Z,1.10
2022-12-26T20:39:14.971Z,1.20
2022-12-26T20:41:41.856Z,1.10
2022-12-26T20:44:08.733Z,1.20
2022-12-26T20:46:36.231Z,1.20
2022-12-26T20:49:04.834Z,1.30
2022-12-26T20:51:37.494Z,1.30
2022-12-26T20:54:06.992Z,1.30
2022-12-26T20:56:35.339Z,1.30
2022-12-26T20:59:03.283Z,1.30
2022-12-26T21:01:30.545Z,1.30
2022-12-26T21:03:58.237Z,1.30
2022-12-26T21:06:30.489Z,1.30
2022-12-26T21:08:57.908Z,1.20
2022-12-26T21:11:33.536Z,1.30
2022-12-26T21:14:07.029Z,1.30
2022-12-26T21:16:37.260Z,1.30
2022-12-26T21:19:10.647Z,1.30
2022-12-26T21:21:44.179Z,1.30
2022-12-26T21:24:20.235Z,1.30
2022-12-26T21:26:48.104Z,1.30
2022-12-26T21:29:35.689Z,1.30
2022-12-26T21:32:03.597Z,1.30
2022-12-26T21:34:32.224Z,1.30
2022-12-26T21:37:17.856Z,1.40
2022-12-26T21:39:45.160Z,1.40
2022-12-26T21:42:12.121Z,1.40
2022-12-26T21:44:39.202Z,1.40
2022-12-26T21:47:08.129Z,1.40
2022-12-26T21:49:35.799Z,1.40
2022-12-26T21:52:03.447Z,1.40
2022-12-26T21:54:49.596Z,1.50
2022-12-26T21:57:17.522Z,1.50
2022-12-26T21:59:56.907Z,1.50
2022-12-26T22:02:44.728Z,1.50
2022-12-26T22:05:11.813Z,1.50
2022-12-26T22:07:38.756Z,1.50
2022-12-26T22:10:06.054Z,1.50
2022-12-26T22:12:51.316Z,1.50
2022-12-26T22:15:36.795Z,1.60
2022-12-26T22:18:03.670Z,1.60
2022-12-26T22:20:30.453Z,1.60
2022-12-26T22:22:57.311Z,1.60
2022-12-26T22:25:24.125Z,1.60
2022-12-26T22:27:51.027Z,1.60
2022-12-26T22:30:17.909Z,1.70
2022-12-26T22:32:44.763Z,1.60
2022-12-26T22:35:18.241Z,1.60
2022-12-26T22:37:45.647Z,1.60
2022-12-26T22:40:12.823Z,1.70
2022-12-26T22:42:39.749Z,1.70
2022-12-26T22:45:07.170Z,1.70
2022-12-26T22:47:33.996Z,1.70
2022-12-26T22:50:00.784Z,1.80
2022-12-26T22:52:28.873Z,1.80
2022-12-26T22:54:55.719Z,1.90
2022-12-26T22:57:23.700Z,2.00
2022-12-26T23:02:37.600Z,2.10
2022-12-26T23:05:05.491Z,2.20
2022-12-26T23:07:32.909Z,2.30
2022-12-26T23:10:00.524Z,2.40
2022-12-26T23:12:43.311Z,2.50
2022-12-26T23:15:13.154Z,2.60
2022-12-26T23:18:02.018Z,2.70
2022-12-26T23:20:52.231Z,2.80
2022-12-26T23:23:19.231Z,2.90
2022-12-26T23:25:46.099Z,3.00
2022-12-26T23:28:31.366Z,3.00
2022-12-26T23:30:58.851Z,3.30
2022-12-26T23:33:26.097Z,3.60
2022-12-26T23:35:52.971Z,3.70
2022-12-26T23:38:19.822Z,3.90
2022-12-26T23:40:46.689Z,3.90
2022-12-26T23:43:13.659Z,3.90
2022-12-26T23:45:44.551Z,4.00
2022-12-26T23:48:12.577Z,4.00
2022-12-26T23:50:40.005Z,3.90
2022-12-26T23:53:06.924Z,3.80
2022-12-26T23:55:33.979Z,3.80
2022-12-26T23:58:00.763Z,3.80
